createdAt,value
2019-05-02T00:02:28.912Z,68.43
2019-05-02T00:04:59.821Z,68.85
2019-05-02T00:07:30.556Z,69.07
2019-05-02T00:10:00.984Z,69.76
2019-05-02T00:12:32.634Z,70.05
2019-05-02T00:15:06.335Z,70.48
2019-05-02T00:17:37.788Z,71.08
2019-05-02T00:20:08.826Z,70.91
2019-05-02T00:22:48.038Z,70.93
2019-05-02T00:25:17.195Z,70.77
2019-05-02T00:27:47.788Z,70.85
2019-05-02T00:30:18.486Z,71.99
2019-05-02T00:32:53.265Z,71.91
2019-05-02T00:35:21.521Z,71.84
2019-05-02T00:37:52.356Z,72.05
2019-05-02T00:40:25.854Z,71.88
2019-05-02T00:42:58.326Z,72.05
2019-05-02T00:45:28.549Z,72.18
2019-05-02T00:48:03.893Z,72.51
2019-05-02T00:50:40.543Z,72.31
2019-05-02T00:53:12.077Z,72.59
2019-05-02T00:55:45.005Z,72.30
2019-05-02T00:58:16.768Z,72.35
2019-05-02T01:01:05.819Z,72.61
2019-05-02T01:03:37.984Z,72.79
2019-05-02T01:06:13.748Z,73.08
2019-05-02T01:08:41.677Z,73.06
2019-05-02T01:11:12.134Z,73.58
2019-05-02T01:13:42.557Z,73.78
2019-05-02T01:16:15.180Z,73.99
2019-05-02T01:18:46.378Z,74.48
2019-05-02T01:21:17.009Z,75.14
2019-05-02T01:23:47.538Z,75.36
2019-05-02T01:26:18.582Z,76.43
2019-05-02T01:28:59.551Z,76.17
2019-05-02T01:31:54.680Z,76.35
2019-05-02T01:34:33.107Z,76.58
2019-05-02T01:37:05.235Z,76.79
2019-05-02T01:39:37.971Z,76.70
2019-05-02T01:42:08.000Z,77.04
2019-05-02T01:44:38.358Z,77.65
2019-05-02T01:47:08.886Z,77.48
2019-05-02T01:49:39.516Z,77.84
2019-05-02T01:52:10.524Z,77.54
2019-05-02T01:54:45.672Z,78.01
2019-05-02T01:57:13.560Z,78.22
2019-05-02T01:59:43.986Z,78.48
2019-05-02T02:02:15.101Z,78.86
2019-05-02T02:04:45.555Z,79.14
2019-05-02T02:07:19.969Z,79.87
2019-05-02T02:09:48.556Z,79.84
2019-05-02T02:12:19.187Z,79.73
2019-05-02T02:14:53.660Z,79.75
2019-05-02T02:17:24.751Z,79.64
2019-05-02T02:19:59.887Z,79.42
2019-05-02T02:22:39.076Z,79.49
2019-05-02T02:25:27.466Z,80.15
2019-05-02T02:27:59.630Z,80.19
2019-05-02T02:30:30.265Z,80.49
2019-05-02T02:33:07.743Z,80.58
2019-05-02T02:35:33.232Z,79.79
2019-05-02T02:38:03.693Z,79.28
2019-05-02T02:40:35.729Z,78.99
2019-05-02T02:43:30.257Z,78.76
2019-05-02T02:45:44.502Z,78.68
2019-05-02T02:48:15.027Z,78.86
2019-05-02T02:50:45.651Z,78.45
2019-05-02T02:53:23.903Z,78.20
2019-05-02T02:56:00.819Z,78.37
2019-05-02T02:58:22.666Z,78.36
2019-05-02T03:00:53.721Z,78.29
2019-05-02T03:03:27.922Z,78.42
2019-05-02T03:05:58.605Z,78.39
2019-05-02T03:08:31.567Z,78.50
2019-05-02T03:11:02.376Z,78.00
2019-05-02T03:13:51.357Z,78.28
2019-05-02T03:16:17.969Z,78.50
2019-05-02T03:18:49.760Z,78.64
2019-05-02T03:21:22.554Z,78.00
2019-05-02T03:24:02.272Z,77.92
2019-05-02T03:26:26.532Z,77.26
2019-05-02T03:28:58.369Z,77.54
2019-05-02T03:31:31.367Z,77.23
2019-05-02T03:34:02.044Z,77.23
2019-05-02T03:36:36.051Z,77.06
2019-05-02T03:39:13.519Z,76.72
2019-05-02T03:41:39.248Z,76.80
2019-05-02T03:44:11.903Z,76.50
2019-05-02T03:46:42.235Z,76.92
2019-05-02T03:49:13.087Z,76.04
2019-05-02T03:51:44.415Z,76.20
2019-05-02T03:54:15.358Z,75.99
2019-05-02T03:56:51.148Z,74.92
2019-05-02T03:59:18.980Z,74.91
2019-05-02T04:01:50.001Z,75.67
2019-05-02T04:04:21.108Z,74.63
2019-05-02T04:06:55.117Z,73.69
2019-05-02T04:09:31.971Z,73.34
2019-05-02T04:11:58.685Z,73.61
2019-05-02T04:14:38.181Z,73.34
2019-05-02T04:17:01.996Z,74.01
2019-05-02T04:19:34.776Z,74.09
2019-05-02T04:22:08.645Z,74.48
2019-05-02T04:24:37.159Z,75.20
2019-05-02T04:27:08.795Z,74.30
2019-05-02T04:29:39.368Z,74.83
2019-05-02T04:32:14.021Z,74.55
2019-05-02T04:34:48.801Z,74.23
2019-05-02T04:37:14.517Z,74.24
2019-05-02T04:39:44.935Z,74.90
2019-05-02T04:42:19.574Z,74.22
2019-05-02T04:45:09.432Z,74.38
2019-05-02T04:47:21.761Z,73.66
2019-05-02T04:49:52.215Z,73.93
2019-05-02T04:52:23.213Z,74.48
2019-05-02T04:55:00.819Z,74.82
2019-05-02T04:57:35.533Z,74.93
2019-05-02T05:00:06.159Z,74.46
2019-05-02T05:02:36.678Z,74.42
2019-05-02T05:05:05.090Z,74.48
2019-05-02T05:07:40.814Z,74.83
2019-05-02T05:10:08.448Z,74.71
2019-05-02T05:12:41.777Z,74.06
2019-05-02T05:15:15.229Z,74.68
2019-05-02T05:17:44.165Z,74.22
2019-05-02T05:20:15.956Z,74.67
2019-05-02T05:22:47.917Z,75.37
2019-05-02T05:25:35.000Z,75.41
2019-05-02T05:28:08.797Z,74.50
2019-05-02T05:30:45.354Z,73.50
2019-05-02T05:33:10.503Z,72.92
2019-05-02T05:35:43.214Z,72.83
2019-05-02T05:38:13.684Z,72.84
2019-05-02T05:40:47.914Z,73.36
2019-05-02T05:43:21.635Z,72.31
2019-05-02T05:45:56.641Z,71.73
2019-05-02T05:48:24.707Z,71.79
2019-05-02T05:50:55.342Z,72.01
2019-05-02T05:53:28.087Z,73.24
2019-05-02T05:56:02.382Z,72.94
2019-05-02T05:58:31.126Z,73.82
2019-05-02T06:01:02.263Z,73.48
2019-05-02T06:03:33.984Z,74.44
2019-05-02T06:06:05.469Z,74.02
2019-05-02T06:08:36.098Z,73.55
2019-05-02T06:11:06.628Z,73.07
2019-05-02T06:13:38.181Z,72.76
2019-05-02T06:16:10.581Z,72.37
2019-05-02T06:18:41.726Z,72.62
2019-05-02T06:21:13.725Z,72.09
2019-05-02T06:23:45.266Z,72.11
2019-05-02T06:26:16.089Z,72.44
2019-05-02T06:28:49.850Z,73.02
2019-05-02T06:31:20.488Z,72.41
2019-05-02T06:33:51.214Z,72.18
2019-05-02T06:36:21.753Z,72.13
2019-05-02T06:38:56.195Z,72.09
2019-05-02T06:41:24.441Z,71.25
2019-05-02T06:43:54.968Z,71.31
2019-05-02T06:46:27.531Z,71.17
2019-05-02T06:48:57.560Z,71.23
2019-05-02T06:51:28.529Z,70.19
2019-05-02T06:53:59.951Z,69.63
2019-05-02T06:56:30.479Z,69.52
2019-05-02T06:59:03.566Z,69.04
2019-05-02T07:01:34.681Z,68.60
2019-05-02T07:04:05.236Z,67.58
2019-05-02T07:06:50.162Z,66.89
2019-05-02T07:09:09.018Z,67.35
2019-05-02T07:11:41.051Z,66.56
2019-05-02T07:14:13.524Z,66.73
2019-05-02T07:16:49.593Z,66.42
2019-05-02T07:19:27.369Z,65.87
2019-05-02T07:22:03.808Z,65.50
2019-05-02T07:24:32.658Z,66.00
2019-05-02T07:27:03.446Z,65.98
2019-05-02T07:29:33.973Z,65.72
2019-05-02T07:32:06.733Z,64.51
2019-05-02T07:34:36.979Z,65.27
2019-05-02T07:37:08.457Z,63.66
2019-05-02T07:39:40.870Z,63.02
2019-05-02T07:42:11.732Z,63.37
2019-05-02T07:44:42.465Z,63.84
2019-05-02T07:47:13.286Z,63.63
2019-05-02T07:49:44.034Z,63.53
2019-05-02T07:52:17.817Z,64.23
2019-05-02T07:54:50.621Z,65.37
2019-05-02T07:57:25.196Z,66.04
2019-05-02T07:59:55.077Z,66.03
2019-05-02T08:02:26.432Z,65.46
2019-05-02T08:04:56.939Z,65.71
2019-05-02T08:07:34.336Z,67.41
2019-05-02T08:09:59.423Z,66.01
2019-05-02T08:12:29.953Z,64.44
2019-05-02T08:15:00.449Z,63.88
2019-05-02T08:17:31.110Z,64.32
2019-05-02T08:20:04.654Z,65.05
2019-05-02T08:22:34.221Z,65.35
2019-05-02T08:25:10.570Z,65.96
2019-05-02T08:27:53.194Z,65.20
2019-05-02T08:30:28.020Z,65.21
2019-05-02T08:33:01.295Z,65.58
2019-05-02T08:35:31.740Z,64.17
2019-05-02T08:38:02.377Z,62.83
2019-05-02T08:40:33.005Z,63.64
2019-05-02T08:43:09.444Z,63.09
2019-05-02T08:45:38.211Z,63.26
2019-05-02T08:48:09.414Z,63.65
2019-05-02T08:50:40.141Z,64.14
2019-05-02T08:53:14.244Z,63.41
2019-05-02T08:55:45.380Z,63.84
2019-05-02T08:58:15.891Z,62.47
2019-05-02T09:00:47.509Z,61.41
2019-05-02T09:03:18.307Z,61.47
2019-05-02T09:05:49.045Z,59.99
2019-05-02T09:08:19.773Z,59.55
2019-05-02T09:10:50.509Z,58.21
2019-05-02T09:13:25.972Z,59.40
2019-05-02T09:15:54.282Z,58.66
2019-05-02T09:18:30.041Z,58.31
2019-05-02T09:20:57.437Z,59.38
2019-05-02T09:23:35.001Z,60.63
2019-05-02T09:26:02.518Z,60.68
2019-05-02T09:28:33.323Z,60.62
2019-05-02T09:31:06.604Z,61.50
2019-05-02T09:33:36.861Z,61.61
2019-05-02T09:36:11.812Z,60.99
2019-05-02T09:38:42.494Z,61.17
2019-05-02T09:41:16.929Z,61.46
2019-05-02T09:43:45.603Z,61.22
2019-05-02T09:46:16.683Z,61.50
2019-05-02T09:48:47.375Z,62.16
2019-05-02T09:51:18.419Z,62.50
2019-05-02T09:53:49.048Z,62.58
2019-05-02T09:56:21.457Z,63.36
2019-05-02T09:58:55.267Z,63.15
2019-05-02T10:01:29.133Z,64.16
2019-05-02T10:03:59.763Z,63.88
2019-05-02T10:06:32.134Z,65.06
2019-05-02T10:09:02.788Z,65.08
2019-05-02T10:11:35.559Z,63.15
2019-05-02T10:14:11.747Z,62.82
2019-05-02T10:16:42.627Z,62.48
2019-05-02T10:19:16.087Z,62.74
2019-05-02T10:21:46.965Z,63.40
2019-05-02T10:24:22.061Z,64.11
2019-05-02T10:26:55.142Z,64.91
2019-05-02T10:29:28.323Z,65.58
2019-05-02T10:31:57.183Z,65.55
2019-05-02T10:34:27.813Z,64.48
2019-05-02T10:36:59.290Z,64.72
2019-05-02T10:39:33.962Z,64.36
2019-05-02T10:42:03.290Z,65.62
2019-05-02T10:44:36.544Z,65.86
2019-05-02T10:47:06.199Z,65.83
2019-05-02T10:49:42.861Z,65.46
2019-05-02T10:52:15.362Z,65.62
2019-05-02T10:54:46.809Z,65.68
2019-05-02T10:57:17.833Z,66.18
2019-05-02T10:59:48.253Z,66.10
2019-05-02T11:02:26.773Z,65.23
2019-05-02T11:04:59.240Z,65.03
2019-05-02T11:07:29.974Z,64.98
2019-05-02T11:10:03.109Z,64.22
2019-05-02T11:12:44.506Z,65.67
2019-05-02T11:15:26.786Z,65.27
2019-05-02T11:17:57.282Z,63.67
2019-05-02T11:20:28.190Z,63.37
2019-05-02T11:22:58.745Z,63.18
2019-05-02T11:25:29.242Z,62.20
2019-05-02T11:28:02.919Z,62.65
2019-05-02T11:30:32.090Z,64.73
2019-05-02T11:33:03.148Z,64.71
2019-05-02T11:35:34.254Z,64.20
2019-05-02T11:38:05.050Z,63.58
2019-05-02T11:40:35.824Z,65.18
2019-05-02T11:43:07.586Z,64.31
2019-05-02T11:45:38.114Z,65.68
2019-05-02T11:48:11.030Z,65.18
2019-05-02T11:50:42.147Z,65.46
2019-05-02T11:53:23.301Z,65.30
2019-05-02T11:55:46.628Z,65.11
2019-05-02T11:58:17.305Z,65.37
2019-05-02T12:00:49.577Z,64.17
2019-05-02T12:03:22.800Z,63.65
2019-05-02T12:05:53.572Z,63.55
2019-05-02T12:08:24.613Z,63.98
2019-05-02T12:10:55.170Z,64.02
2019-05-02T12:13:25.699Z,63.07
2019-05-02T12:15:56.390Z,62.43
2019-05-02T12:18:27.063Z,62.84
2019-05-02T12:20:57.693Z,61.95
2019-05-02T12:23:28.139Z,61.74
2019-05-02T12:25:58.853Z,60.45
2019-05-02T12:28:29.571Z,60.20
2019-05-02T12:31:02.757Z,58.08
2019-05-02T12:33:34.020Z,58.49
2019-05-02T12:36:11.994Z,57.96
2019-05-02T12:38:42.556Z,58.01
2019-05-02T12:41:20.348Z,58.09
2019-05-02T12:43:45.453Z,56.21
2019-05-02T12:46:16.193Z,56.17
2019-05-02T12:48:46.919Z,56.54
2019-05-02T12:51:17.729Z,56.32
2019-05-02T12:53:48.393Z,56.73
2019-05-02T12:56:19.016Z,56.12
2019-05-02T12:58:52.875Z,55.12
2019-05-02T13:01:22.335Z,55.21
2019-05-02T13:04:04.435Z,53.97
2019-05-02T13:06:37.071Z,53.23
2019-05-02T13:09:09.087Z,52.96
2019-05-02T13:11:44.616Z,52.61
2019-05-02T13:14:19.194Z,52.66
2019-05-02T13:16:47.113Z,52.99
2019-05-02T13:19:18.143Z,52.49
2019-05-02T13:22:05.845Z,52.19
2019-05-02T13:24:39.446Z,52.94
2019-05-02T13:27:15.124Z,52.42
2019-05-02T13:29:46.062Z,53.16
2019-05-02T13:32:18.969Z,53.64
2019-05-02T13:34:54.121Z,54.25
2019-05-02T13:37:24.820Z,53.25
2019-05-02T13:40:03.008Z,52.85
2019-05-02T13:42:34.377Z,53.62
2019-05-02T13:45:13.777Z,53.54
2019-05-02T13:47:44.545Z,53.53
2019-05-02T13:50:15.694Z,52.74
2019-05-02T13:52:53.245Z,53.05
2019-05-02T13:55:21.147Z,53.00
2019-05-02T13:57:53.026Z,52.54
2019-05-02T14:00:31.897Z,52.32
2019-05-02T14:03:04.994Z,50.96
2019-05-02T14:05:37.085Z,51.31
2019-05-02T14:08:27.448Z,51.16
2019-05-02T14:11:01.927Z,51.42
2019-05-02T14:13:32.735Z,51.38
2019-05-02T14:16:03.474Z,51.04
2019-05-02T14:18:34.002Z,52.28
2019-05-02T14:21:04.832Z,51.57
2019-05-02T14:23:35.261Z,51.94
2019-05-02T14:26:06.064Z,52.76
2019-05-02T14:28:36.731Z,52.12
2019-05-02T14:31:07.458Z,51.11
2019-05-02T14:33:39.932Z,51.14
2019-05-02T14:36:11.690Z,51.82
2019-05-02T14:38:42.217Z,53.16
2019-05-02T14:41:14.801Z,52.47
2019-05-02T14:43:54.203Z,52.28
2019-05-02T14:46:34.153Z,53.10
2019-05-02T14:48:58.771Z,53.21
2019-05-02T14:51:29.503Z,52.76
2019-05-02T14:54:03.560Z,52.96
2019-05-02T14:56:37.493Z,53.64
2019-05-02T14:59:09.245Z,51.23
2019-05-02T15:01:39.374Z,50.29
2019-05-02T15:04:09.823Z,50.46
2019-05-02T15:06:45.349Z,49.54
2019-05-02T15:09:16.778Z,49.98
2019-05-02T15:12:02.792Z,49.22
2019-05-02T15:14:34.260Z,48.77
2019-05-02T15:17:05.174Z,47.65
2019-05-02T15:19:35.801Z,47.70
2019-05-02T15:22:06.362Z,45.50
2019-05-02T15:24:38.059Z,44.13
2019-05-02T15:27:17.328Z,43.91
2019-05-02T15:29:41.976Z,44.03
2019-05-02T15:32:17.379Z,44.33
2019-05-02T15:34:55.692Z,44.68
2019-05-02T15:37:26.834Z,45.23
2019-05-02T15:42:29.701Z,45.83
2019-05-02T15:45:02.175Z,46.13
2019-05-02T15:47:32.429Z,46.52
2019-05-02T15:50:03.139Z,46.10
2019-05-02T15:52:36.765Z,46.08
2019-05-02T15:55:07.466Z,46.73
2019-05-02T15:57:42.811Z,48.20
2019-05-02T16:00:15.531Z,49.00
2019-05-02T16:02:44.209Z,49.97
2019-05-02T16:05:14.938Z,50.24
2019-05-02T16:07:46.748Z,51.19
2019-05-02T16:10:17.562Z,52.32
2019-05-02T16:12:49.779Z,53.18
2019-05-02T16:15:24.762Z,54.64
2019-05-02T16:17:52.356Z,55.61
2019-05-02T16:20:40.587Z,55.92
2019-05-02T16:23:07.801Z,57.22
2019-05-02T16:25:38.235Z,58.59
2019-05-02T16:28:08.628Z,58.77
2019-05-02T16:30:44.111Z,58.77
2019-05-02T16:33:17.408Z,58.87
2019-05-02T16:35:46.246Z,59.21
2019-05-02T16:38:17.058Z,59.91
2019-05-02T16:40:47.597Z,60.16
2019-05-02T16:43:18.051Z,60.70
2019-05-02T16:45:49.503Z,60.83
2019-05-02T16:48:22.217Z,61.55
2019-05-02T16:50:53.833Z,61.31
2019-05-02T16:53:26.284Z,61.40
2019-05-02T16:55:58.372Z,61.10
2019-05-02T16:58:29.381Z,61.82
2019-05-02T17:01:01.588Z,61.44
2019-05-02T17:03:32.111Z,60.89
2019-05-02T17:06:02.846Z,61.31
2019-05-02T17:08:57.428Z,61.14
2019-05-02T17:11:35.608Z,61.27
2019-05-02T17:14:07.028Z,61.45
2019-05-02T17:16:36.805Z,61.67
2019-05-02T17:19:07.230Z,62.33
2019-05-02T17:21:52.479Z,61.30
2019-05-02T17:24:10.336Z,62.11
2019-05-02T17:26:42.282Z,63.30
2019-05-02T17:29:16.439Z,62.81
2019-05-02T17:31:44.990Z,63.35
2019-05-02T17:34:15.736Z,63.97
2019-05-02T17:36:46.457Z,64.68
2019-05-02T17:39:18.879Z,64.88
2019-05-02T17:41:49.461Z,65.32
2019-05-02T17:44:22.233Z,65.37
2019-05-02T17:46:58.130Z,65.71
2019-05-02T17:49:31.922Z,65.73
2019-05-02T17:52:05.558Z,66.19
2019-05-02T17:54:34.700Z,66.80
2019-05-02T17:57:05.537Z,67.35
2019-05-02T17:59:37.555Z,67.61
2019-05-02T18:02:12.393Z,67.81
2019-05-02T18:04:41.929Z,67.84
2019-05-02T18:07:12.563Z,68.57
2019-05-02T18:09:43.297Z,68.76
2019-05-02T18:12:16.215Z,68.81
2019-05-02T18:14:46.299Z,69.19
2019-05-02T18:17:18.867Z,69.50
2019-05-02T18:19:49.509Z,69.62
2019-05-02T18:22:24.142Z,69.80
2019-05-02T18:24:52.650Z,69.64
2019-05-02T18:27:24.675Z,69.99
2019-05-02T18:29:55.408Z,70.22
2019-05-02T18:32:26.221Z,70.55
2019-05-02T18:35:01.300Z,70.48
2019-05-02T18:37:29.040Z,70.70
2019-05-02T18:39:59.673Z,70.88
2019-05-02T18:42:31.691Z,71.32
2019-05-02T18:45:03.049Z,71.26
2019-05-02T18:47:33.614Z,71.54
2019-05-02T18:50:06.221Z,70.99
2019-05-02T18:52:42.985Z,71.00
2019-05-02T18:55:09.840Z,71.39
2019-05-02T18:57:42.324Z,71.37
2019-05-02T19:00:13.591Z,71.62
2019-05-02T19:02:44.599Z,71.79
2019-05-02T19:05:19.250Z,71.22
2019-05-02T19:07:52.678Z,71.53
2019-05-02T19:10:20.249Z,71.27
2019-05-02T19:12:51.701Z,71.46
2019-05-02T19:15:22.025Z,71.41
2019-05-02T19:17:53.011Z,71.56
2019-05-02T19:20:25.130Z,71.48
2019-05-02T19:22:57.002Z,71.79
2019-05-02T19:25:27.719Z,72.20
2019-05-02T19:28:00.058Z,72.76
2019-05-02T19:30:35.229Z,72.87
2019-05-02T19:33:07.839Z,73.19
2019-05-02T19:35:43.187Z,72.70
2019-05-02T19:38:11.837Z,72.48
2019-05-02T19:40:42.846Z,72.51
2019-05-02T19:43:14.802Z,72.05
2019-05-02T19:45:50.274Z,72.28
2019-05-02T19:48:17.836Z,71.86
2019-05-02T19:50:48.482Z,72.42
2019-05-02T19:53:19.678Z,71.93
2019-05-02T19:55:51.869Z,72.41
2019-05-02T19:58:22.304Z,71.77
2019-05-02T20:00:53.856Z,71.86
2019-05-02T20:03:26.181Z,71.94
2019-05-02T20:06:01.587Z,72.41
2019-05-02T20:08:29.542Z,71.54
2019-05-02T20:11:01.941Z,71.11
2019-05-02T20:13:32.835Z,71.63
2019-05-02T20:16:06.352Z,70.67
2019-05-02T20:18:42.408Z,70.13
2019-05-02T20:21:27.590Z,71.35
2019-05-02T20:23:55.646Z,71.50
2019-05-02T20:26:26.077Z,72.06
2019-05-02T20:28:56.703Z,72.18
2019-05-02T20:31:27.334Z,72.14
2019-05-02T20:33:57.865Z,71.15
2019-05-02T20:36:28.492Z,69.79
2019-05-02T20:38:59.228Z,70.22
2019-05-02T20:41:29.755Z,70.03
2019-05-02T20:44:02.520Z,69.01
2019-05-02T20:46:32.863Z,69.04
2019-05-02T20:49:03.394Z,68.63
2019-05-02T20:51:34.399Z,68.74
2019-05-02T20:54:05.171Z,68.74
2019-05-02T20:56:35.695Z,68.06
2019-05-02T20:59:07.348Z,67.62
2019-05-02T21:01:38.670Z,66.88
2019-05-02T21:04:09.120Z,67.26
2019-05-02T21:07:01.895Z,67.14
2019-05-02T21:09:35.228Z,67.73
2019-05-02T21:12:07.738Z,68.01
2019-05-02T21:14:38.264Z,69.05
2019-05-02T21:17:08.895Z,68.96
2019-05-02T21:19:39.423Z,68.73
2019-05-02T21:22:14.458Z,68.69
2019-05-02T21:24:44.886Z,68.50
2019-05-02T21:27:15.721Z,67.24
2019-05-02T21:29:47.480Z,66.05
2019-05-02T21:32:18.008Z,65.37
2019-05-02T21:34:48.537Z,64.68
2019-05-02T21:37:19.164Z,64.60
2019-05-02T21:39:49.593Z,65.52
2019-05-02T21:42:20.121Z,64.84
2019-05-02T21:44:51.781Z,64.59
2019-05-02T21:47:23.329Z,64.97
2019-05-02T21:49:55.394Z,63.31
2019-05-02T21:52:34.624Z,63.15
2019-05-02T21:55:12.868Z,63.71
2019-05-02T21:57:44.335Z,64.33
2019-05-02T22:00:19.077Z,64.73
2019-05-02T22:02:52.334Z,65.09
2019-05-02T22:05:22.829Z,65.09
2019-05-02T22:07:53.460Z,64.89
2019-05-02T22:10:24.094Z,65.05
2019-05-02T22:12:54.824Z,64.56
2019-05-02T22:15:25.252Z,62.78
2019-05-02T22:17:56.570Z,63.10
2019-05-02T22:20:29.277Z,63.14
2019-05-02T22:23:00.113Z,62.42
2019-05-02T22:25:32.639Z,62.62
2019-05-02T22:28:02.808Z,64.05
2019-05-02T22:30:33.412Z,64.19
2019-05-02T22:33:04.175Z,63.32
2019-05-02T22:35:34.907Z,63.67
2019-05-02T22:38:11.624Z,64.05
2019-05-02T22:40:43.951Z,64.40
2019-05-02T22:43:14.657Z,64.24
2019-05-02T22:45:45.212Z,62.89
2019-05-02T22:48:15.739Z,62.88
2019-05-02T22:50:46.953Z,62.53
2019-05-02T22:53:17.596Z,63.50
2019-05-02T22:55:48.145Z,63.78
2019-05-02T22:58:18.777Z,64.04
2019-05-02T23:00:49.815Z,65.25
2019-05-02T23:03:21.538Z,66.42
2019-05-02T23:05:53.371Z,67.11
2019-05-02T23:08:24.268Z,67.75
2019-05-02T23:10:55.001Z,68.71
2019-05-02T23:13:25.637Z,68.48
2019-05-02T23:15:56.367Z,68.56
2019-05-02T23:18:27.200Z,68.77
2019-05-02T23:20:57.728Z,70.43
2019-05-02T23:23:28.268Z,71.33
2019-05-02T23:26:15.888Z,73.60
2019-05-02T23:28:56.968Z,74.18
2019-05-02T23:31:27.799Z,74.22
2019-05-02T23:33:58.227Z,75.55
2019-05-02T23:36:29.480Z,75.15
2019-05-02T23:39:01.828Z,75.01
2019-05-02T23:41:34.008Z,76.25
2019-05-02T23:44:05.603Z,74.79
2019-05-02T23:46:36.192Z,75.24
2019-05-02T23:49:06.620Z,76.07
2019-05-02T23:51:37.424Z,75.80
2019-05-02T23:54:07.981Z,77.28
2019-05-02T23:56:39.738Z,78.40
2019-05-02T23:59:11.875Z,77.59
